createdAt,value
2019-06-10T00:00:18.407Z,9.75
2019-06-10T00:02:47.369Z,9.72
2019-06-10T00:05:21.759Z,9.71
2019-06-10T00:07:56.225Z,9.72
2019-06-10T00:10:26.666Z,9.70
2019-06-10T00:13:20.946Z,9.66
2019-06-10T00:15:56.615Z,9.65
2019-06-10T00:18:40.794Z,9.67
2019-06-10T00:21:06.685Z,9.70
2019-06-10T00:23:36.175Z,9.75
2019-06-10T00:26:07.608Z,9.80
2019-06-10T00:28:38.026Z,9.79
2019-06-10T00:31:11.478Z,9.74
2019-06-10T00:33:43.182Z,9.72
2019-06-10T00:36:13.982Z,9.68
2019-06-10T00:38:44.527Z,9.64
2019-06-10T00:41:17.858Z,9.60
2019-06-10T00:43:47.010Z,9.53
2019-06-10T00:46:21.220Z,9.46
2019-06-10T00:48:55.565Z,9.44
2019-06-10T00:51:33.205Z,9.46
2019-06-10T00:54:04.997Z,9.52
2019-06-10T00:56:33.359Z,9.55
2019-06-10T00:59:05.843Z,9.55
2019-06-10T01:01:35.409Z,9.57
2019-06-10T01:04:15.933Z,9.53
2019-06-10T01:06:44.389Z,9.53
2019-06-10T01:09:17.823Z,9.53
2019-06-10T01:11:55.620Z,9.54
2019-06-10T01:14:24.309Z,9.56
2019-06-10T01:16:53.052Z,9.54
2019-06-10T01:19:23.149Z,9.50
2019-06-10T01:21:51.898Z,9.46
2019-06-10T01:24:22.302Z,9.45
2019-06-10T01:26:51.179Z,9.43
2019-06-10T01:29:23.642Z,9.36
2019-06-10T01:31:54.497Z,9.29
2019-06-10T01:34:26.606Z,9.23
2019-06-10T01:36:57.935Z,9.22
2019-06-10T01:39:38.169Z,9.25
2019-06-10T01:42:08.234Z,9.31
2019-06-10T01:44:37.681Z,9.36
2019-06-10T01:47:17.427Z,9.37
2019-06-10T01:49:52.905Z,9.36
2019-06-10T01:52:21.457Z,9.30
2019-06-10T01:54:54.097Z,9.26
2019-06-10T01:57:23.398Z,9.29
2019-06-10T01:59:52.570Z,9.34
2019-06-10T02:02:24.295Z,9.33
2019-06-10T02:04:53.369Z,9.31
2019-06-10T02:07:22.994Z,9.25
2019-06-10T02:10:01.092Z,9.18
2019-06-10T02:12:33.098Z,9.13
2019-06-10T02:15:07.012Z,9.07
2019-06-10T02:17:35.677Z,9.06
2019-06-10T02:20:14.846Z,9.08
2019-06-10T02:22:46.021Z,9.17
2019-06-10T02:25:21.382Z,9.25
2019-06-10T02:27:50.778Z,9.31
2019-06-10T02:30:35.773Z,9.32
2019-06-10T02:32:52.441Z,9.31
2019-06-10T02:35:30.489Z,9.30
2019-06-10T02:37:53.961Z,9.32
2019-06-10T02:40:35.561Z,9.35
2019-06-10T02:43:20.816Z,9.39
2019-06-10T02:45:53.084Z,9.45
2019-06-10T02:48:24.676Z,9.47
2019-06-10T02:50:55.656Z,9.50
2019-06-10T02:53:30.824Z,9.49
2019-06-10T02:55:59.702Z,9.45
2019-06-10T02:58:44.905Z,9.43
2019-06-10T03:01:19.932Z,9.43
2019-06-10T03:03:51.067Z,9.48
2019-06-10T03:06:29.843Z,9.53
2019-06-10T03:08:55.277Z,9.60
2019-06-10T03:11:33.446Z,9.65
2019-06-10T03:13:58.447Z,9.66
2019-06-10T03:16:32.968Z,9.63
2019-06-10T03:19:03.130Z,9.59
2019-06-10T03:21:33.660Z,9.56
2019-06-10T03:24:42.240Z,9.53
2019-06-10T03:27:23.526Z,9.53
2019-06-10T03:29:55.302Z,9.53
2019-06-10T03:32:33.124Z,9.49
2019-06-10T03:34:57.733Z,9.47
2019-06-10T03:37:29.539Z,9.46
2019-06-10T03:40:02.993Z,9.47
2019-06-10T03:42:32.542Z,9.49
2019-06-10T03:45:03.387Z,9.58
2019-06-10T03:47:34.137Z,9.63
2019-06-10T03:50:05.764Z,9.66
2019-06-10T03:52:34.480Z,9.68
2019-06-10T03:55:05.266Z,9.67
2019-06-10T03:57:37.373Z,9.63
2019-06-10T04:00:14.077Z,9.57
2019-06-10T04:02:44.032Z,9.47
2019-06-10T04:05:13.864Z,9.40
2019-06-10T04:07:49.368Z,9.38
2019-06-10T04:10:24.394Z,9.36
2019-06-10T04:12:53.769Z,9.32
2019-06-10T04:15:28.433Z,9.33
2019-06-10T04:18:04.656Z,9.37
2019-06-10T04:20:33.288Z,9.39
2019-06-10T04:23:04.335Z,9.35
2019-06-10T04:25:33.036Z,9.30
2019-06-10T04:28:19.737Z,9.27
2019-06-10T04:30:53.077Z,9.26
2019-06-10T04:33:29.107Z,9.28
2019-06-10T04:36:03.197Z,9.29
2019-06-10T04:38:33.151Z,9.29
2019-06-10T04:41:03.934Z,9.31
2019-06-10T04:43:43.204Z,9.32
2019-06-10T04:46:14.644Z,9.36
2019-06-10T04:48:49.645Z,9.41
2019-06-10T04:51:23.904Z,9.44
2019-06-10T04:53:55.022Z,9.46
2019-06-10T04:56:29.012Z,9.53
2019-06-10T04:59:03.176Z,9.62
2019-06-10T05:01:35.518Z,9.66
2019-06-10T05:04:12.507Z,9.71
2019-06-10T05:06:52.685Z,9.77
2019-06-10T05:09:27.288Z,9.84
2019-06-10T05:11:57.958Z,9.94
2019-06-10T05:14:33.430Z,10.02
2019-06-10T05:17:03.156Z,10.09
2019-06-10T05:22:32.642Z,10.18
2019-06-10T05:25:04.710Z,10.13
2019-06-10T05:27:35.144Z,10.14
2019-06-10T05:30:12.101Z,10.17
2019-06-10T05:32:56.354Z,10.23
2019-06-10T05:35:28.456Z,10.35
2019-06-10T05:37:58.583Z,10.62
2019-06-10T05:40:34.119Z,10.90
2019-06-10T05:43:05.200Z,11.11
2019-06-10T05:45:42.448Z,11.47
2019-06-10T05:48:16.512Z,12.03
2019-06-10T05:51:00.082Z,12.54
2019-06-10T05:53:35.630Z,12.76
2019-06-10T05:56:07.015Z,12.79
2019-06-10T05:58:43.732Z,12.92
2019-06-10T06:03:47.886Z,13.48
2019-06-10T06:06:33.768Z,13.85
2019-06-10T06:11:52.239Z,14.46
2019-06-10T06:14:22.487Z,14.68
2019-06-10T06:16:53.166Z,14.62
2019-06-10T06:19:26.093Z,14.36
2019-06-10T06:22:02.369Z,14.06
2019-06-10T06:24:35.693Z,13.82
2019-06-10T06:27:08.515Z,13.62
2019-06-10T06:29:46.143Z,13.51
2019-06-10T06:32:19.579Z,13.45
2019-06-10T06:35:07.309Z,13.47
2019-06-10T06:37:48.562Z,13.55
2019-06-10T06:40:29.398Z,13.62
2019-06-10T06:42:59.571Z,13.73
2019-06-10T06:45:29.628Z,13.80
2019-06-10T06:47:58.470Z,13.88
2019-06-10T06:50:33.115Z,13.93
2019-06-10T06:53:21.160Z,13.96
2019-06-10T06:58:33.574Z,14.21
2019-06-10T07:01:10.154Z,14.63
2019-06-10T07:03:40.012Z,14.89
2019-06-10T07:06:13.038Z,15.07
2019-06-10T07:09:07.741Z,15.25
2019-06-10T07:11:45.543Z,15.50
2019-06-10T07:14:26.970Z,15.67
2019-06-10T07:16:57.594Z,16.02
2019-06-10T07:19:52.721Z,16.16
2019-06-10T07:22:23.332Z,16.11
2019-06-10T07:25:06.518Z,16.06
2019-06-10T07:27:46.895Z,16.01
2019-06-10T07:30:17.465Z,16.20
2019-06-10T07:32:48.859Z,16.44
2019-06-10T07:35:23.283Z,16.50
2019-06-10T07:38:02.817Z,16.39
2019-06-10T07:40:35.919Z,16.19
2019-06-10T07:45:56.553Z,15.77
2019-06-10T07:48:52.702Z,15.33
2019-06-10T07:51:23.662Z,15.33
2019-06-10T07:53:55.416Z,15.23
2019-06-10T07:56:31.740Z,15.12
2019-06-10T07:59:18.877Z,15.00
2019-06-10T08:01:59.154Z,14.92
2019-06-10T08:04:38.210Z,14.84
2019-06-10T08:10:07.480Z,14.85
2019-06-10T08:12:39.282Z,14.95
2019-06-10T08:15:12.489Z,15.04
2019-06-10T08:17:53.065Z,15.16
2019-06-10T08:20:45.237Z,15.39
2019-06-10T08:23:25.554Z,15.77
2019-06-10T08:25:59.943Z,16.21
2019-06-10T08:28:33.272Z,16.62
2019-06-10T08:31:50.147Z,16.92
2019-06-10T08:34:23.203Z,17.12
2019-06-10T08:37:18.007Z,17.61
2019-06-10T08:40:28.149Z,17.85
2019-06-10T08:43:04.308Z,17.85
2019-06-10T08:45:34.341Z,17.99
2019-06-10T08:48:05.130Z,18.01
2019-06-10T08:51:05.127Z,17.99
2019-06-10T08:53:37.349Z,17.92
2019-06-10T08:56:13.686Z,17.79
2019-06-10T08:58:49.644Z,17.58
2019-06-10T09:04:59.528Z,17.38
2019-06-10T09:08:12.979Z,17.28
2019-06-10T09:10:51.552Z,17.23
2019-06-10T09:13:41.467Z,17.20
2019-06-10T09:16:18.262Z,17.20
2019-06-10T09:18:49.588Z,17.17
2019-06-10T09:21:56.386Z,17.13
2019-06-10T09:24:28.119Z,17.11
2019-06-10T09:27:08.657Z,17.12
2019-06-10T09:29:48.033Z,17.13
2019-06-10T09:32:26.553Z,17.08
2019-06-10T09:34:58.878Z,16.97
2019-06-10T09:37:32.644Z,16.98
2019-06-10T09:40:07.350Z,16.93
2019-06-10T09:43:02.450Z,16.92
2019-06-10T09:49:02.165Z,16.99
2019-06-10T09:51:34.401Z,17.04
2019-06-10T10:00:47.292Z,17.00
2019-06-10T10:21:59.636Z,17.00
2019-06-10T10:24:34.043Z,17.05
2019-06-10T10:27:46.546Z,17.05
2019-06-10T10:34:02.560Z,17.11
2019-06-10T10:48:33.510Z,17.08
2019-06-10T10:51:12.633Z,17.10
2019-06-10T10:54:19.669Z,17.16
2019-06-10T10:56:59.452Z,17.16
2019-06-10T10:59:53.969Z,17.14
2019-06-10T11:02:32.237Z,17.14
2019-06-10T22:57:17.352Z,12.20
2019-06-10T23:00:02.608Z,12.16
2019-06-10T23:08:57.530Z,12.06
2019-06-10T23:11:32.330Z,12.03
2019-06-10T23:14:03.354Z,12.02
2019-06-10T23:17:02.960Z,12.01
2019-06-10T23:19:34.087Z,11.99
2019-06-10T23:22:06.118Z,11.98
2019-06-10T23:24:36.074Z,11.98
2019-06-10T23:27:06.178Z,11.99
2019-06-10T23:29:34.827Z,11.97
2019-06-10T23:32:07.061Z,11.93
2019-06-10T23:34:35.436Z,11.91
2019-06-10T23:37:32.225Z,11.89
2019-06-10T23:40:04.708Z,11.87
2019-06-10T23:42:33.379Z,11.84
2019-06-10T23:48:01.322Z,11.83
2019-06-10T23:50:54.013Z,11.82
